createdAt,value
2018-04-28T00:00:03.205Z,9.6
2018-04-28T00:15:02.696Z,9.5
2018-04-28T00:30:03.009Z,9.5
2018-04-28T00:45:02.343Z,9.4
2018-04-28T01:00:02.641Z,9.4
2018-04-28T01:15:02.883Z,9.4
2018-04-28T01:30:02.316Z,9.4
2018-04-28T01:45:02.568Z,9.4
2018-04-28T02:00:02.908Z,9.3
2018-04-28T02:15:03.132Z,9.3
2018-04-28T02:30:02.470Z,9.3
2018-04-28T02:45:02.774Z,9.2
2018-04-28T03:00:03.023Z,9.2
2018-04-28T03:15:02.353Z,9.2
2018-04-28T03:30:02.724Z,9.2
2018-04-28T03:45:02.978Z,9.1
2018-04-28T04:00:02.265Z,9.1
2018-04-28T04:15:02.518Z,9.1
2018-04-28T04:30:02.799Z,9.1
2018-04-28T04:45:03.060Z,9
2018-04-28T05:00:02.292Z,9
2018-04-28T05:15:02.556Z,9
2018-04-28T05:30:02.931Z,8.9
2018-04-28T05:45:03.261Z,8.9
2018-04-28T06:03:30.952Z,8.9
2018-04-28T06:15:02.424Z,8.9
2018-04-28T06:30:02.811Z,8.9
2018-04-28T06:45:03.199Z,8.9
2018-04-28T07:00:02.584Z,8.9
2018-04-28T07:15:02.792Z,8.9
2018-04-28T07:31:02.075Z,8.9
2018-04-28T07:48:23.550Z,8.9
2018-04-28T08:01:50.914Z,8.9
2018-04-28T08:15:03.181Z,9
2018-04-28T08:30:02.554Z,9
2018-04-28T08:45:02.765Z,9.1
2018-04-28T09:00:03.307Z,9.1
2018-04-28T09:15:02.723Z,9.2
2018-04-28T09:30:03.017Z,9.2
2018-04-28T09:45:02.349Z,9.2
2018-04-28T10:00:02.745Z,9.3
2018-04-28T10:15:03.097Z,9.4
2018-04-28T10:30:02.456Z,9.4
2018-04-28T10:45:02.865Z,9.5
2018-04-28T11:00:03.116Z,9.6
2018-04-28T11:15:02.435Z,9.6
2018-04-28T11:30:02.926Z,9.7
2018-04-28T11:45:03.194Z,9.8
2018-04-28T12:00:02.467Z,9.9
2018-04-28T12:15:02.848Z,9.9
2018-04-28T12:30:03.209Z,9.9
2018-04-28T12:45:02.576Z,10.1
2018-04-28T13:00:02.929Z,10.1
2018-04-28T13:15:03.186Z,10.2
2018-04-28T13:30:02.650Z,10.2
2018-04-28T13:45:02.953Z,10.3
2018-04-28T14:00:03.234Z,10.3
2018-04-28T14:15:02.602Z,10.4
2018-04-28T14:30:02.916Z,10.4
2018-04-28T14:45:03.275Z,10.4
2018-04-28T15:00:02.564Z,10.4
2018-04-28T15:15:02.900Z,10.4
2018-04-28T15:30:02.241Z,10.5
2018-04-28T15:45:02.594Z,10.5
2018-04-28T16:00:02.933Z,10.5
2018-04-28T16:15:03.309Z,10.5
2018-04-28T16:30:02.755Z,10.5
2018-04-28T16:45:03.112Z,10.4
2018-04-28T17:00:02.420Z,10.4
2018-04-28T17:15:02.783Z,10.4
2018-04-28T17:30:03.088Z,10.4
2018-04-28T17:45:02.445Z,10.3
2018-04-28T18:00:02.731Z,10.3
2018-04-28T18:15:02.971Z,10.2
2018-04-28T18:30:02.330Z,10.2
2018-04-28T18:45:02.661Z,10.2
2018-04-28T19:00:02.889Z,10.2
2018-04-28T19:15:03.178Z,10.1
2018-04-28T19:30:02.562Z,10.1
2018-04-28T19:45:02.878Z,10.1
2018-04-28T20:00:03.120Z,10
2018-04-28T20:15:02.419Z,10
2018-04-28T20:30:02.736Z,9.9
2018-04-28T20:45:02.955Z,9.9
2018-04-28T21:00:02.311Z,9.9
2018-04-28T21:15:02.665Z,9.9
2018-04-28T21:30:03.064Z,9.9
2018-04-28T21:45:02.395Z,9.9
2018-04-28T22:00:02.641Z,9.9
2018-04-28T22:15:02.998Z,9.8
2018-04-28T22:30:02.400Z,9.8
2018-04-28T22:45:02.688Z,9.8
2018-04-28T23:00:02.967Z,9.8
2018-04-28T23:15:02.253Z,9.8
2018-04-28T23:30:02.629Z,9.8
2018-04-28T23:45:02.929Z,9.8
